sensor_id;sensor_type;location;lat;lon;timestamp;temperature;humidity
18593;DHT22;9426;54.118;17.948;2022-11-04T00:04:47;5.00;99.90
18593;DHT22;9426;54.118;17.948;2022-11-04T00:10:29;5.00;99.90
18593;DHT22;9426;54.118;17.948;2022-11-04T00:16:07;5.00;99.90
18593;DHT22;9426;54.118;17.948;2022-11-04T00:21:49;5.10;99.90
18593;DHT22;9426;54.118;17.948;2022-11-04T00:27:30;5.10;99.90
18593;DHT22;9426;54.118;17.948;2022-11-04T00:33:10;5.30;99.90
18593;DHT22;9426;54.118;17.948;2022-11-04T00:38:50;5.40;99.90
18593;DHT22;9426;54.118;17.948;2022-11-04T00:44:14;5.60;99.90
18593;DHT22;9426;54.118;17.948;2022-11-04T00:49:37;5.70;99.90
18593;DHT22;9426;54.118;17.948;2022-11-04T00:55:02;5.70;99.90
18593;DHT22;9426;54.118;17.948;2022-11-04T01:00:25;5.80;99.90
18593;DHT22;9426;54.118;17.948;2022-11-04T01:05:49;5.80;99.90
18593;DHT22;9426;54.118;17.948;2022-11-04T01:11:13;5.80;99.90
18593;DHT22;9426;54.118;17.948;2022-11-04T01:16:37;5.70;99.90
18593;DHT22;9426;54.118;17.948;2022-11-04T01:22:00;5.70;99.90
18593;DHT22;9426;54.118;17.948;2022-11-04T01:27:25;5.80;99.90
18593;DHT22;9426;54.118;17.948;2022-11-04T01:32:48;5.80;99.90
18593;DHT22;9426;54.118;17.948;2022-11-04T01:38:11;5.80;99.90
18593;DHT22;9426;54.118;17.948;2022-11-04T01:43:48;6.00;99.90
18593;DHT22;9426;54.118;17.948;2022-11-04T01:49:23;6.20;99.90
18593;DHT22;9426;54.118;17.948;2022-11-04T01:54:50;6.20;99.90
18593;DHT22;9426;54.118;17.948;2022-11-04T02:00:17;6.30;99.90
18593;DHT22;9426;54.118;17.948;2022-11-04T02:05:41;6.40;99.90
18593;DHT22;9426;54.118;17.948;2022-11-04T02:11:04;6.40;99.90
18593;DHT22;9426;54.118;17.948;2022-11-04T02:16:35;6.50;99.90
18593;DHT22;9426;54.118;17.948;2022-11-04T02:22:21;6.50;99.90
18593;DHT22;9426;54.118;17.948;2022-11-04T02:28:09;6.60;99.90
18593;DHT22;9426;54.118;17.948;2022-11-04T02:33:43;6.60;99.90
18593;DHT22;9426;54.118;17.948;2022-11-04T02:39:18;6.70;99.90
18593;DHT22;9426;54.118;17.948;2022-11-04T02:44:49;6.70;99.90
18593;DHT22;9426;54.118;17.948;2022-11-04T02:50:21;6.70;99.90
18593;DHT22;9426;54.118;17.948;2022-11-04T02:55:49;6.70;99.90
18593;DHT22;9426;54.118;17.948;2022-11-04T03:01:16;6.70;99.90
18593;DHT22;9426;54.118;17.948;2022-11-04T03:06:43;6.70;99.90
18593;DHT22;9426;54.118;17.948;2022-11-04T03:12:12;6.70;99.90
18593;DHT22;9426;54.118;17.948;2022-11-04T03:17:42;6.70;99.90
18593;DHT22;9426;54.118;17.948;2022-11-04T03:23:10;6.70;99.90
18593;DHT22;9426;54.118;17.948;2022-11-04T03:28:38;6.70;99.90
18593;DHT22;9426;54.118;17.948;2022-11-04T03:34:05;6.70;99.90
18593;DHT22;9426;54.118;17.948;2022-11-04T03:39:30;6.70;99.90
18593;DHT22;9426;54.118;17.948;2022-11-04T03:44:55;6.70;99.90
18593;DHT22;9426;54.118;17.948;2022-11-04T03:50:22;6.70;99.90
18593;DHT22;9426;54.118;17.948;2022-11-04T03:56:02;6.70;99.90
18593;DHT22;9426;54.118;17.948;2022-11-04T04:01:36;6.70;99.90
18593;DHT22;9426;54.118;17.948;2022-11-04T04:07:04;6.60;99.90
18593;DHT22;9426;54.118;17.948;2022-11-04T04:12:34;6.70;99.90
18593;DHT22;9426;54.118;17.948;2022-11-04T04:18:00;6.70;99.90
18593;DHT22;9426;54.118;17.948;2022-11-04T04:23:27;6.70;99.90
18593;DHT22;9426;54.118;17.948;2022-11-04T04:29:11;6.70;99.90
18593;DHT22;9426;54.118;17.948;2022-11-04T04:34:36;6.90;99.90
18593;DHT22;9426;54.118;17.948;2022-11-04T04:39:59;6.90;99.90
18593;DHT22;9426;54.118;17.948;2022-11-04T04:45:50;7.00;99.90
18593;DHT22;9426;54.118;17.948;2022-11-04T04:51:14;6.90;99.90
18593;DHT22;9426;54.118;17.948;2022-11-04T04:56:37;6.90;99.90
18593;DHT22;9426;54.118;17.948;2022-11-04T05:02:02;6.80;99.90
18593;DHT22;9426;54.118;17.948;2022-11-04T05:07:26;6.70;99.90
18593;DHT22;9426;54.118;17.948;2022-11-04T05:12:49;6.60;99.90
18593;DHT22;9426;54.118;17.948;2022-11-04T05:18:31;6.50;99.90
18593;DHT22;9426;54.118;17.948;2022-11-04T05:23:55;6.50;99.90
18593;DHT22;9426;54.118;17.948;2022-11-04T05:29:19;6.50;99.90
18593;DHT22;9426;54.118;17.948;2022-11-04T05:34:43;6.40;99.90
18593;DHT22;9426;54.118;17.948;2022-11-04T05:40:08;6.40;99.90
18593;DHT22;9426;54.118;17.948;2022-11-04T05:45:31;6.30;99.90
18593;DHT22;9426;54.118;17.948;2022-11-04T05:50:56;6.30;99.90
18593;DHT22;9426;54.118;17.948;2022-11-04T05:56:20;6.20;99.90
18593;DHT22;9426;54.118;17.948;2022-11-04T06:01:43;6.20;99.90
18593;DHT22;9426;54.118;17.948;2022-11-04T06:07:08;6.10;99.90
18593;DHT22;9426;54.118;17.948;2022-11-04T06:12:31;6.00;99.90
18593;DHT22;9426;54.118;17.948;2022-11-04T06:17:54;6.00;99.90
18593;DHT22;9426;54.118;17.948;2022-11-04T06:23:19;6.10;99.90
18593;DHT22;9426;54.118;17.948;2022-11-04T06:28:42;6.10;99.90
18593;DHT22;9426;54.118;17.948;2022-11-04T06:34:05;6.20;99.90
18593;DHT22;9426;54.118;17.948;2022-11-04T06:39:30;6.40;99.90
18593;DHT22;9426;54.118;17.948;2022-11-04T06:44:54;6.80;99.90
18593;DHT22;9426;54.118;17.948;2022-11-04T06:50:17;7.20;99.90
18593;DHT22;9426;54.118;17.948;2022-11-04T06:55:42;7.50;99.90
18593;DHT22;9426;54.118;17.948;2022-11-04T07:01:06;7.70;99.90
18593;DHT22;9426;54.118;17.948;2022-11-04T07:06:33;7.80;99.90
18593;DHT22;9426;54.118;17.948;2022-11-04T07:11:58;7.90;99.90
18593;DHT22;9426;54.118;17.948;2022-11-04T07:17:21;8.00;99.90
18593;DHT22;9426;54.118;17.948;2022-11-04T07:22:44;8.10;99.90
18593;DHT22;9426;54.118;17.948;2022-11-04T07:28:10;8.20;99.90
18593;DHT22;9426;54.118;17.948;2022-11-04T07:33:33;8.20;99.90
18593;DHT22;9426;54.118;17.948;2022-11-04T07:38:57;8.10;99.90
18593;DHT22;9426;54.118;17.948;2022-11-04T07:44:22;8.00;99.90
18593;DHT22;9426;54.118;17.948;2022-11-04T07:49:45;8.00;99.90
18593;DHT22;9426;54.118;17.948;2022-11-04T07:55:09;8.00;99.90
18593;DHT22;9426;54.118;17.948;2022-11-04T08:00:36;8.10;99.90
18593;DHT22;9426;54.118;17.948;2022-11-04T08:06:00;8.30;99.90
18593;DHT22;9426;54.118;17.948;2022-11-04T08:11:24;8.40;99.90
18593;DHT22;9426;54.118;17.948;2022-11-04T08:16:50;8.50;99.90
18593;DHT22;9426;54.118;17.948;2022-11-04T08:22:14;8.60;99.90
18593;DHT22;9426;54.118;17.948;2022-11-04T08:27:37;8.70;99.90
18593;DHT22;9426;54.118;17.948;2022-11-04T08:33:02;8.80;99.90
18593;DHT22;9426;54.118;17.948;2022-11-04T08:38:26;9.00;99.90
18593;DHT22;9426;54.118;17.948;2022-11-04T08:43:49;9.10;99.90
18593;DHT22;9426;54.118;17.948;2022-11-04T08:49:14;9.10;99.90
18593;DHT22;9426;54.118;17.948;2022-11-04T08:54:40;9.30;99.90
18593;DHT22;9426;54.118;17.948;2022-11-04T09:00:05;9.40;99.90
18593;DHT22;9426;54.118;17.948;2022-11-04T09:05:31;9.60;99.90
18593;DHT22;9426;54.118;17.948;2022-11-04T09:10:54;9.70;99.90
18593;DHT22;9426;54.118;17.948;2022-11-04T09:16:18;9.70;99.90
18593;DHT22;9426;54.118;17.948;2022-11-04T09:21:42;9.70;99.90
18593;DHT22;9426;54.118;17.948;2022-11-04T09:27:06;9.70;99.90
18593;DHT22;9426;54.118;17.948;2022-11-04T09:32:29;10.00;99.90
18593;DHT22;9426;54.118;17.948;2022-11-04T09:37:54;10.30;99.90
18593;DHT22;9426;54.118;17.948;2022-11-04T09:43:28;10.50;99.90
18593;DHT22;9426;54.118;17.948;2022-11-04T09:48:54;10.70;99.90
18593;DHT22;9426;54.118;17.948;2022-11-04T09:54:22;10.60;99.90
18593;DHT22;9426;54.118;17.948;2022-11-04T09:59:46;10.90;99.90
18593;DHT22;9426;54.118;17.948;2022-11-04T10:05:19;10.90;99.90
18593;DHT22;9426;54.118;17.948;2022-11-04T10:10:53;11.00;99.90
18593;DHT22;9426;54.118;17.948;2022-11-04T10:16:30;10.90;99.90
18593;DHT22;9426;54.118;17.948;2022-11-04T10:22:02;10.70;99.90
18593;DHT22;9426;54.118;17.948;2022-11-04T10:27:30;10.60;99.90
18593;DHT22;9426;54.118;17.948;2022-11-04T10:33:03;10.60;99.90
18593;DHT22;9426;54.118;17.948;2022-11-04T10:38:32;10.70;99.90
18593;DHT22;9426;54.118;17.948;2022-11-04T10:44:07;10.70;99.90
18593;DHT22;9426;54.118;17.948;2022-11-04T10:49:52;10.70;99.90
18593;DHT22;9426;54.118;17.948;2022-11-04T10:55:40;10.70;99.90
18593;DHT22;9426;54.118;17.948;2022-11-04T11:01:24;10.60;99.90
18593;DHT22;9426;54.118;17.948;2022-11-04T11:06:49;10.50;99.90
18593;DHT22;9426;54.118;17.948;2022-11-04T11:12:19;10.50;99.90
18593;DHT22;9426;54.118;17.948;2022-11-04T11:18:15;10.60;99.90
18593;DHT22;9426;54.118;17.948;2022-11-04T11:23:41;10.80;99.90
18593;DHT22;9426;54.118;17.948;2022-11-04T11:29:09;11.00;99.90
18593;DHT22;9426;54.118;17.948;2022-11-04T11:34:37;11.00;99.90
18593;DHT22;9426;54.118;17.948;2022-11-04T11:40:01;11.60;99.90
18593;DHT22;9426;54.118;17.948;2022-11-04T11:45:24;13.00;99.90
18593;DHT22;9426;54.118;17.948;2022-11-04T11:50:55;13.00;99.90
18593;DHT22;9426;54.118;17.948;2022-11-04T11:56:24;12.80;99.90
18593;DHT22;9426;54.118;17.948;2022-11-04T12:02:15;13.00;99.90
18593;DHT22;9426;54.118;17.948;2022-11-04T12:07:49;13.40;99.90
18593;DHT22;9426;54.118;17.948;2022-11-04T12:13:39;13.30;99.90
18593;DHT22;9426;54.118;17.948;2022-11-04T12:19:17;13.20;99.90
18593;DHT22;9426;54.118;17.948;2022-11-04T12:24:53;13.10;99.90
18593;DHT22;9426;54.118;17.948;2022-11-04T12:30:19;12.80;99.90
18593;DHT22;9426;54.118;17.948;2022-11-04T12:35:56;12.20;99.90
18593;DHT22;9426;54.118;17.948;2022-11-04T12:41:30;11.80;99.90
18593;DHT22;9426;54.118;17.948;2022-11-04T12:47:22;11.90;99.90
18593;DHT22;9426;54.118;17.948;2022-11-04T12:53:04;12.10;99.90
18593;DHT22;9426;54.118;17.948;2022-11-04T12:58:44;12.00;99.90
18593;DHT22;9426;54.118;17.948;2022-11-04T13:04:12;12.00;99.90
18593;DHT22;9426;54.118;17.948;2022-11-04T13:09:39;11.90;99.90
18593;DHT22;9426;54.118;17.948;2022-11-04T13:15:14;11.80;99.90
18593;DHT22;9426;54.118;17.948;2022-11-04T13:20:41;11.70;99.90
18593;DHT22;9426;54.118;17.948;2022-11-04T13:26:12;11.50;99.90
18593;DHT22;9426;54.118;17.948;2022-11-04T13:31:46;11.20;99.90
18593;DHT22;9426;54.118;17.948;2022-11-04T13:37:18;11.00;99.90
18593;DHT22;9426;54.118;17.948;2022-11-04T13:43:17;10.90;99.90
18593;DHT22;9426;54.118;17.948;2022-11-04T13:49:03;10.70;99.90
18593;DHT22;9426;54.118;17.948;2022-11-04T13:54:31;10.40;99.90
18593;DHT22;9426;54.118;17.948;2022-11-04T14:00:17;10.20;99.90
18593;DHT22;9426;54.118;17.948;2022-11-04T14:06:01;10.00;99.90
18593;DHT22;9426;54.118;17.948;2022-11-04T14:11:25;9.80;99.90
18593;DHT22;9426;54.118;17.948;2022-11-04T14:16:48;9.70;99.90
18593;DHT22;9426;54.118;17.948;2022-11-04T14:22:14;9.60;99.90
18593;DHT22;9426;54.118;17.948;2022-11-04T14:27:39;9.60;99.90
18593;DHT22;9426;54.118;17.948;2022-11-04T14:33:06;9.50;99.90
18593;DHT22;9426;54.118;17.948;2022-11-04T14:38:33;9.40;99.90
18593;DHT22;9426;54.118;17.948;2022-11-04T14:43:58;9.30;99.90
18593;DHT22;9426;54.118;17.948;2022-11-04T14:49:39;9.30;99.90
18593;DHT22;9426;54.118;17.948;2022-11-04T14:55:10;9.20;99.90
18593;DHT22;9426;54.118;17.948;2022-11-04T15:00:37;9.10;99.90
18593;DHT22;9426;54.118;17.948;2022-11-04T15:06:03;9.10;99.90
18593;DHT22;9426;54.118;17.948;2022-11-04T15:11:29;9.00;99.90
18593;DHT22;9426;54.118;17.948;2022-11-04T15:17:16;8.90;99.90
18593;DHT22;9426;54.118;17.948;2022-11-04T15:22:40;8.90;99.90
18593;DHT22;9426;54.118;17.948;2022-11-04T15:28:17;8.90;99.90
18593;DHT22;9426;54.118;17.948;2022-11-04T15:33:42;8.90;99.90
18593;DHT22;9426;54.118;17.948;2022-11-04T15:39:11;8.80;99.90
18593;DHT22;9426;54.118;17.948;2022-11-04T15:44:36;8.80;99.90
18593;DHT22;9426;54.118;17.948;2022-11-04T15:50:02;8.80;99.90
18593;DHT22;9426;54.118;17.948;2022-11-04T15:55:37;8.80;99.90
18593;DHT22;9426;54.118;17.948;2022-11-04T16:01:03;8.80;99.90
18593;DHT22;9426;54.118;17.948;2022-11-04T16:06:37;8.80;99.90
18593;DHT22;9426;54.118;17.948;2022-11-04T16:12:11;8.80;99.90
18593;DHT22;9426;54.118;17.948;2022-11-04T16:17:43;8.80;99.90
18593;DHT22;9426;54.118;17.948;2022-11-04T16:23:16;8.80;99.90
18593;DHT22;9426;54.118;17.948;2022-11-04T16:28:41;8.80;99.90
18593;DHT22;9426;54.118;17.948;2022-11-04T16:34:10;8.70;99.90
18593;DHT22;9426;54.118;17.948;2022-11-04T16:39:33;8.70;99.90
18593;DHT22;9426;54.118;17.948;2022-11-04T16:44:59;8.70;99.90
18593;DHT22;9426;54.118;17.948;2022-11-04T16:50:25;8.80;99.90
18593;DHT22;9426;54.118;17.948;2022-11-04T16:55:55;8.80;99.90
18593;DHT22;9426;54.118;17.948;2022-11-04T17:01:19;8.80;99.90
18593;DHT22;9426;54.118;17.948;2022-11-04T17:06:44;8.90;99.90
18593;DHT22;9426;54.118;17.948;2022-11-04T17:12:08;8.90;99.90
18593;DHT22;9426;54.118;17.948;2022-11-04T17:17:31;8.90;99.90
18593;DHT22;9426;54.118;17.948;2022-11-04T17:22:56;8.90;99.90
18593;DHT22;9426;54.118;17.948;2022-11-04T17:28:20;8.90;99.90
18593;DHT22;9426;54.118;17.948;2022-11-04T17:33:43;8.90;99.90
18593;DHT22;9426;54.118;17.948;2022-11-04T17:39:08;9.00;99.90
18593;DHT22;9426;54.118;17.948;2022-11-04T17:44:31;9.00;99.90
18593;DHT22;9426;54.118;17.948;2022-11-04T17:49:54;9.00;99.90
18593;DHT22;9426;54.118;17.948;2022-11-04T17:55:19;9.00;99.90
18593;DHT22;9426;54.118;17.948;2022-11-04T18:00:46;9.00;99.90
18593;DHT22;9426;54.118;17.948;2022-11-04T18:06:10;9.00;99.90
18593;DHT22;9426;54.118;17.948;2022-11-04T18:11:34;9.00;99.90
18593;DHT22;9426;54.118;17.948;2022-11-04T18:17:15;9.00;99.90
18593;DHT22;9426;54.118;17.948;2022-11-04T18:22:38;9.00;99.90
18593;DHT22;9426;54.118;17.948;2022-11-04T18:28:03;9.00;99.90
18593;DHT22;9426;54.118;17.948;2022-11-04T18:33:27;9.00;99.90
18593;DHT22;9426;54.118;17.948;2022-11-04T18:38:50;8.90;99.90
18593;DHT22;9426;54.118;17.948;2022-11-04T18:44:17;8.90;99.90
18593;DHT22;9426;54.118;17.948;2022-11-04T18:49:40;8.90;99.90
18593;DHT22;9426;54.118;17.948;2022-11-04T18:55:04;9.00;99.90
18593;DHT22;9426;54.118;17.948;2022-11-04T19:00:29;9.00;99.90
18593;DHT22;9426;54.118;17.948;2022-11-04T19:05:53;9.00;99.90
18593;DHT22;9426;54.118;17.948;2022-11-04T19:11:19;9.00;99.90
18593;DHT22;9426;54.118;17.948;2022-11-04T19:16:44;9.00;99.90
18593;DHT22;9426;54.118;17.948;2022-11-04T19:22:09;9.00;99.90
18593;DHT22;9426;54.118;17.948;2022-11-04T19:27:32;9.10;99.90
18593;DHT22;9426;54.118;17.948;2022-11-04T19:32:58;9.10;99.90
18593;DHT22;9426;54.118;17.948;2022-11-04T19:38:21;9.10;99.90
18593;DHT22;9426;54.118;17.948;2022-11-04T19:43:45;9.10;99.90
18593;DHT22;9426;54.118;17.948;2022-11-04T19:49:11;9.10;99.90
18593;DHT22;9426;54.118;17.948;2022-11-04T19:54:34;9.10;99.90
18593;DHT22;9426;54.118;17.948;2022-11-04T19:59:57;9.10;99.90
18593;DHT22;9426;54.118;17.948;2022-11-04T20:05:22;9.10;99.90
18593;DHT22;9426;54.118;17.948;2022-11-04T20:10:46;9.10;99.90
18593;DHT22;9426;54.118;17.948;2022-11-04T20:16:15;9.10;99.90
18593;DHT22;9426;54.118;17.948;2022-11-04T20:21:40;9.10;99.90
18593;DHT22;9426;54.118;17.948;2022-11-04T20:27:04;9.10;99.90
18593;DHT22;9426;54.118;17.948;2022-11-04T20:32:27;9.10;99.90
18593;DHT22;9426;54.118;17.948;2022-11-04T20:37:52;9.10;99.90
18593;DHT22;9426;54.118;17.948;2022-11-04T20:43:15;9.20;99.90
18593;DHT22;9426;54.118;17.948;2022-11-04T20:48:38;9.10;99.90
18593;DHT22;9426;54.118;17.948;2022-11-04T20:54:04;9.10;99.90
18593;DHT22;9426;54.118;17.948;2022-11-04T20:59:29;9.10;99.90
18593;DHT22;9426;54.118;17.948;2022-11-04T21:04:52;9.10;99.90
18593;DHT22;9426;54.118;17.948;2022-11-04T21:10:17;9.10;99.90
18593;DHT22;9426;54.118;17.948;2022-11-04T21:15:40;9.10;99.90
18593;DHT22;9426;54.118;17.948;2022-11-04T21:21:06;9.10;99.90
18593;DHT22;9426;54.118;17.948;2022-11-04T21:26:33;9.10;99.90
18593;DHT22;9426;54.118;17.948;2022-11-04T21:31:57;9.00;99.90
18593;DHT22;9426;54.118;17.948;2022-11-04T21:37:20;9.00;99.90
18593;DHT22;9426;54.118;17.948;2022-11-04T21:42:45;9.00;99.90
18593;DHT22;9426;54.118;17.948;2022-11-04T21:48:08;9.00;99.90
18593;DHT22;9426;54.118;17.948;2022-11-04T21:53:32;9.00;99.90
18593;DHT22;9426;54.118;17.948;2022-11-04T21:58:57;8.90;99.90
18593;DHT22;9426;54.118;17.948;2022-11-04T22:04:20;8.90;99.90
18593;DHT22;9426;54.118;17.948;2022-11-04T22:09:43;8.90;99.90
18593;DHT22;9426;54.118;17.948;2022-11-04T22:15:10;8.90;99.90
18593;DHT22;9426;54.118;17.948;2022-11-04T22:20:34;9.00;99.90
18593;DHT22;9426;54.118;17.948;2022-11-04T22:25:58;8.90;99.90
18593;DHT22;9426;54.118;17.948;2022-11-04T22:31:25;8.90;99.90
18593;DHT22;9426;54.118;17.948;2022-11-04T22:36:48;9.00;99.90
18593;DHT22;9426;54.118;17.948;2022-11-04T22:42:12;8.90;99.90
18593;DHT22;9426;54.118;17.948;2022-11-04T22:47:37;8.90;99.90
18593;DHT22;9426;54.118;17.948;2022-11-04T22:53:00;9.00;99.90
18593;DHT22;9426;54.118;17.948;2022-11-04T22:58:24;9.00;99.90
18593;DHT22;9426;54.118;17.948;2022-11-04T23:03:49;8.90;99.90
18593;DHT22;9426;54.118;17.948;2022-11-04T23:09:12;8.90;99.90
18593;DHT22;9426;54.118;17.948;2022-11-04T23:14:36;8.70;99.90
18593;DHT22;9426;54.118;17.948;2022-11-04T23:20:18;8.70;99.90
18593;DHT22;9426;54.118;17.948;2022-11-04T23:25:43;8.60;99.90
18593;DHT22;9426;54.118;17.948;2022-11-04T23:31:07;8.50;99.90
18593;DHT22;9426;54.118;17.948;2022-11-04T23:36:32;8.50;99.90
18593;DHT22;9426;54.118;17.948;2022-11-04T23:42:16;8.50;99.90
18593;DHT22;9426;54.118;17.948;2022-11-04T23:47:41;8.40;99.90
18593;DHT22;9426;54.118;17.948;2022-11-04T23:53:23;8.40;99.90
18593;DHT22;9426;54.118;17.948;2022-11-04T23:59:19;8.40;99.90
